<?xml version='1.0' encoding='UTF-8'?>
<gpx xmlns="http://www.topografix.com/GPX/1/1" creator="www.balnam.be" version="1.1" xmlns:xsi="http://www.w3.org/2001/XMLSchema-instance" xsi:schemaLocation="http://www.topografix.com/GPX/1/1 http://www.topografix.com/GPX/1/1/gpx.xsd">
<trk>
<name>llgag45</name>
<cmt>v</cmt>
<desc>Angleur Sentier n°45 </desc>
<link href="https://chemins.be/angleur/sentier/45"/><trkseg>
<trkpt lat="50.602230" lon="5.562154"><time>2026-05-04T16:20:47Z</time></trkpt>
<trkpt lat="50.602292" lon="5.562692"><time>2026-05-04T16:30:47Z</time></trkpt>
<trkpt lat="50.602335" lon="5.563301"><time>2026-05-04T16:40:47Z</time></trkpt>
<trkpt lat="50.602484" lon="5.564562"><time>2026-05-04T16:50:47Z</time></trkpt>
<trkpt lat="50.602624" lon="5.565682"><time>2026-05-04T17:00:47Z</time></trkpt>
<trkpt lat="50.602738" lon="5.566284"><time>2026-05-04T17:10:47Z</time></trkpt>
<trkpt lat="50.603169" lon="5.567739"><time>2026-05-04T17:20:47Z</time></trkpt>
<trkpt lat="50.603376" lon="5.568387"><time>2026-05-04T17:30:47Z</time></trkpt>
<trkpt lat="50.603565" lon="5.569619"><time>2026-05-04T17:40:47Z</time></trkpt>
<trkpt lat="50.603808" lon="5.571363"><time>2026-05-04T17:50:47Z</time></trkpt>
<trkpt lat="50.603997" lon="5.572223"><time>2026-05-04T18:00:47Z</time></trkpt>
</trkseg></trk>
<trk>
<name>llgag45</name>
<cmt>d</cmt>
<desc>Angleur Sentier n°45 </desc>
<link href="https://chemins.be/angleur/sentier/45"/><trkseg>
<trkpt lat="50.603997" lon="5.572223"><time>2026-05-04T18:00:47Z</time></trkpt>
<trkpt lat="50.604163" lon="5.572964"><time>2026-05-04T18:10:47Z</time></trkpt>
<trkpt lat="50.604293" lon="5.574051"><time>2026-05-04T18:20:47Z</time></trkpt>
<trkpt lat="50.604387" lon="5.574478"><time>2026-05-04T18:30:47Z</time></trkpt>
</trkseg></trk>
<trk>
<name>llgag45</name>
<cmt>b</cmt>
<desc>Angleur Sentier n°45 </desc>
<link href="https://chemins.be/angleur/sentier/45"/><trkseg>
<trkpt lat="50.604387" lon="5.574478"><time>2026-05-04T18:30:47Z</time></trkpt>
<trkpt lat="50.604615" lon="5.575493"><time>2026-05-04T18:40:47Z</time></trkpt>
</trkseg></trk>
<trk>
<name>llgag45</name>
<cmt>d</cmt>
<desc>Angleur Sentier n°45 </desc>
<link href="https://chemins.be/angleur/sentier/45"/><trkseg>
<trkpt lat="50.604615" lon="5.575493"><time>2026-05-04T18:40:47Z</time></trkpt>
<trkpt lat="50.604783" lon="5.576265"><time>2026-05-04T18:50:47Z</time></trkpt>
<trkpt lat="50.604780" lon="5.576671"><time>2026-05-04T19:00:47Z</time></trkpt>
<trkpt lat="50.605461" lon="5.578757"><time>2026-05-04T19:10:47Z</time></trkpt>
<trkpt lat="50.605497" lon="5.579272"><time>2026-05-04T19:20:47Z</time></trkpt>
<trkpt lat="50.605865" lon="5.580009"><time>2026-05-04T19:30:47Z</time></trkpt>
<trkpt lat="50.606051" lon="5.580881"><time>2026-05-04T19:40:47Z</time></trkpt>
<trkpt lat="50.608728" lon="5.584584"><time>2026-05-04T19:50:47Z</time></trkpt>
</trkseg></trk>
<trk>
<name>llgag45</name>
<cmt>v</cmt>
<desc>Angleur Sentier n°45 </desc>
<link href="https://chemins.be/angleur/sentier/45"/><trkseg>
<trkpt lat="50.608728" lon="5.584584"><time>2026-05-04T19:50:47Z</time></trkpt>
<trkpt lat="50.609435" lon="5.585224"><time>2026-05-04T20:00:47Z</time></trkpt>
</trkseg>
</trk>
</gpx>